Time;durP1;ratioP1;P1;durP2;ratioP2;P2;SDS_P1;SDS_P2;PMS_P1;PMS_P2;Temp;Humidity;BMP_temperature;BMP_pressure;BME280_temperature;BME280_humidity;BME280_pressure;Samples;Min_cycle;Max_cycle;Signal;HPM_P1;HPM_P2
2021/05/21 00:00:40;;;;;;;1.67;0.98;;;;;;;;;;4904760;29;20142;-61
2021/05/21 00:03:06;;;;;;;1.75;0.73;;;;;;;;;;4893604;29;20055;-62
2021/05/21 00:05:32;;;;;;;3.92;0.85;;;;;;;;;;4910946;29;20055;-62
2021/05/21 00:07:58;;;;;;;3.20;0.95;;;;;;;;;;4923858;29;20040;-62
2021/05/21 00:10:24;;;;;;;2.67;0.57;;;;;;;;;;4922975;29;20058;-62
2021/05/21 00:12:51;;;;;;;2.35;0.75;;;;;;;;;;4909994;29;20044;-62
2021/05/21 00:15:17;;;;;;;2.22;1.27;;;;;;;;;;4920341;29;20043;-62
2021/05/21 00:17:44;;;;;;;2.95;0.93;;;;;;;;;;4929802;29;20028;-62
2021/05/21 00:20:11;;;;;;;3.30;0.90;;;;;;;;;;4912278;29;20036;-62
2021/05/21 00:22:37;;;;;;;1.95;0.75;;;;;;;;;;4909306;29;20032;-62
2021/05/21 00:25:04;;;;;;;2.33;1.20;;;;;;;;;;4914530;29;20477;-61
2021/05/21 00:27:30;;;;;;;7.05;1.00;;;;;;;;;;4888583;29;20044;-61
2021/05/21 00:29:56;;;;;;;3.65;0.90;;;;;;;;;;4901450;29;20075;-62
2021/05/21 00:32:22;;;;;;;6.30;1.23;;;;;;;;;;4928033;29;20040;-61
2021/05/21 00:34:49;;;;;;;2.92;0.75;;;;;;;;;;4922161;29;20043;-62
2021/05/21 00:37:15;;;;;;;3.75;1.10;;;;;;;;;;4942428;29;20047;-62
2021/05/21 00:39:41;;;;;;;3.05;0.73;;;;;;;;;;4922658;29;20586;-63
2021/05/21 00:42:07;;;;;;;3.88;0.90;;;;;;;;;;4909390;29;20060;-63
2021/05/21 00:44:33;;;;;;;3.40;0.70;;;;;;;;;;4905124;29;20040;-62
2021/05/21 00:46:59;;;;;;;4.22;0.90;;;;;;;;;;4905369;29;20039;-63
2021/05/21 00:49:25;;;;;;;3.45;0.70;;;;;;;;;;4908059;29;20268;-61
2021/05/21 00:51:53;;;;;;;1.10;0.60;;;;;;;;;;4904008;29;20058;-62
2021/05/21 00:54:20;;;;;;;1.45;0.70;;;;;;;;;;4908559;29;20040;-61
2021/05/21 00:56:47;;;;;;;2.10;0.65;;;;;;;;;;4905280;29;20052;-62
2021/05/21 00:59:16;;;;;;;4.43;0.88;;;;;;;;;;4906214;29;20061;-62
2021/05/21 01:01:42;;;;;;;8.40;0.80;;;;;;;;;;4904598;29;20055;-62
2021/05/21 01:04:08;;;;;;;4.32;0.70;;;;;;;;;;4913380;29;20082;-63
2021/05/21 01:06:34;;;;;;;3.10;0.68;;;;;;;;;;4913031;29;20083;-63
2021/05/21 01:09:01;;;;;;;2.80;0.90;;;;;;;;;;4927306;29;20091;-62
2021/05/21 01:11:28;;;;;;;3.28;0.65;;;;;;;;;;4921327;29;20179;-63
2021/05/21 01:13:54;;;;;;;3.13;0.88;;;;;;;;;;4927205;29;20099;-61
2021/05/21 01:16:20;;;;;;;5.43;0.77;;;;;;;;;;4934341;29;20051;-60
2021/05/21 01:18:46;;;;;;;4.75;0.90;;;;;;;;;;4918873;29;20055;-60
2021/05/21 01:21:13;;;;;;;3.55;0.93;;;;;;;;;;4907445;29;20155;-61
2021/05/21 01:23:39;;;;;;;2.75;0.90;;;;;;;;;;4921178;29;20036;-61
2021/05/21 01:26:05;;;;;;;4.10;0.75;;;;;;;;;;4901952;29;20065;-61
2021/05/21 01:28:31;;;;;;;6.20;1.00;;;;;;;;;;4940468;29;20204;-61
2021/05/21 01:30:57;;;;;;;5.65;0.90;;;;;;;;;;4927940;29;20043;-60
2021/05/21 01:33:23;;;;;;;5.22;0.98;;;;;;;;;;4925402;29;20043;-61
2021/05/21 01:35:50;;;;;;;3.45;0.80;;;;;;;;;;4929169;29;20058;-60
2021/05/21 01:38:17;;;;;;;1.65;0.70;;;;;;;;;;4925746;29;20037;-61
2021/05/21 01:40:43;;;;;;;4.13;0.82;;;;;;;;;;4934716;29;20118;-60
2021/05/21 01:43:10;;;;;;;1.90;0.80;;;;;;;;;;4915087;29;20040;-61
2021/05/21 01:45:37;;;;;;;2.25;0.70;;;;;;;;;;4911306;29;20051;-60
2021/05/21 01:48:04;;;;;;;4.32;1.10;;;;;;;;;;4923894;29;20047;-60
2021/05/21 01:50:30;;;;;;;6.25;0.98;;;;;;;;;;4911633;29;20061;-61
2021/05/21 01:52:57;;;;;;;6.63;1.38;;;;;;;;;;4908602;29;20039;-62
2021/05/21 01:55:24;;;;;;;15.77;1.48;;;;;;;;;;4909661;29;20050;-61
2021/05/21 01:57:50;;;;;;;7.53;1.40;;;;;;;;;;4908172;29;20052;-61
2021/05/21 02:00:16;;;;;;;11.77;1.80;;;;;;;;;;4923604;29;20076;-61
2021/05/21 02:02:42;;;;;;;12.73;1.83;;;;;;;;;;4887651;29;20052;-61
2021/05/21 02:05:09;;;;;;;10.75;1.70;;;;;;;;;;4909441;29;20039;-61
2021/05/21 02:07:35;;;;;;;12.88;1.55;;;;;;;;;;4909298;29;20055;-61
2021/05/21 02:10:02;;;;;;;16.45;1.92;;;;;;;;;;4906920;29;20055;-62
2021/05/21 02:12:31;;;;;;;14.98;1.50;;;;;;;;;;4909673;29;20052;-61
2021/05/21 02:14:58;;;;;;;9.35;1.75;;;;;;;;;;4905248;29;20032;-62
2021/05/21 02:17:24;;;;;;;15.00;2.03;;;;;;;;;;4907844;29;20059;-61
2021/05/21 02:19:50;;;;;;;12.80;2.05;;;;;;;;;;4905452;29;20039;-61
2021/05/21 02:22:18;;;;;;;15.88;1.75;;;;;;;;;;4910534;29;20058;-61
2021/05/21 02:24:44;;;;;;;14.75;2.45;;;;;;;;;;4913577;29;20130;-61
2021/05/21 02:27:11;;;;;;;9.88;1.40;;;;;;;;;;4893609;29;20048;-61
2021/05/21 02:29:38;;;;;;;11.82;1.52;;;;;;;;;;4902421;29;20047;-61
2021/05/21 02:32:05;;;;;;;6.93;1.52;;;;;;;;;;4926330;28;20098;-61
2021/05/21 02:34:33;;;;;;;13.75;1.70;;;;;;;;;;4917275;29;20062;-61
2021/05/21 02:36:59;;;;;;;8.93;1.73;;;;;;;;;;4925082;29;20047;-61
2021/05/21 02:39:26;;;;;;;10.77;1.50;;;;;;;;;;4907726;29;20043;-61
2021/05/21 02:41:53;;;;;;;15.15;1.80;;;;;;;;;;4912995;29;20058;-61
2021/05/21 02:44:19;;;;;;;12.75;1.73;;;;;;;;;;4905103;29;20114;-61
2021/05/21 02:46:46;;;;;;;14.23;1.67;;;;;;;;;;4927374;29;20095;-60
2021/05/21 02:49:19;;;;;;;13.68;1.90;;;;;;;;;;4908591;29;20055;-61
2021/05/21 02:51:45;;;;;;;13.50;1.50;;;;;;;;;;4921823;29;20235;-61
2021/05/21 02:54:11;;;;;;;11.32;1.60;;;;;;;;;;4910680;29;20090;-61
2021/05/21 02:56:37;;;;;;;11.77;1.60;;;;;;;;;;4907308;29;20044;-61
2021/05/21 02:59:03;;;;;;;8.60;1.35;;;;;;;;;;4909673;29;20055;-60
2021/05/21 03:01:29;;;;;;;13.25;1.70;;;;;;;;;;4906520;29;20051;-61
2021/05/21 03:03:56;;;;;;;8.15;1.48;;;;;;;;;;4909075;29;20047;-61
2021/05/21 03:06:21;;;;;;;9.43;1.38;;;;;;;;;;4916767;29;20050;-60
2021/05/21 03:08:48;;;;;;;15.80;1.63;;;;;;;;;;4929138;29;20067;-60
2021/05/21 03:11:14;;;;;;;13.07;1.67;;;;;;;;;;4923547;29;20039;-61
2021/05/21 03:13:40;;;;;;;11.43;1.35;;;;;;;;;;4929214;29;20035;-61
2021/05/21 03:16:06;;;;;;;11.25;1.60;;;;;;;;;;4920321;29;20047;-61
2021/05/21 03:18:32;;;;;;;10.10;1.52;;;;;;;;;;4911359;29;20072;-61
2021/05/21 03:20:59;;;;;;;7.68;1.25;;;;;;;;;;4908403;29;20080;-61
2021/05/21 03:23:25;;;;;;;7.35;1.30;;;;;;;;;;4908985;29;20058;-62
2021/05/21 03:25:51;;;;;;;11.82;1.98;;;;;;;;;;4900111;29;20036;-61
2021/05/21 03:28:17;;;;;;;14.13;1.55;;;;;;;;;;4908820;29;20036;-61
2021/05/21 03:30:43;;;;;;;15.52;2.17;;;;;;;;;;4909668;29;20055;-61
2021/05/21 03:33:10;;;;;;;13.63;1.48;;;;;;;;;;4923145;29;20043;-62
2021/05/21 03:35:36;;;;;;;10.80;1.23;;;;;;;;;;4914577;29;20064;-61
2021/05/21 03:38:03;;;;;;;12.38;1.63;;;;;;;;;;4905613;29;20052;-61
2021/05/21 03:40:29;;;;;;;9.48;1.20;;;;;;;;;;4914769;29;20044;-62
2021/05/21 03:42:56;;;;;;;16.50;1.52;;;;;;;;;;4911067;29;20506;-62
2021/05/21 03:45:22;;;;;;;8.48;1.55;;;;;;;;;;4926325;29;20052;-61
2021/05/21 03:47:48;;;;;;;13.82;1.50;;;;;;;;;;4906475;29;20055;-61
2021/05/21 03:50:16;;;;;;;9.98;1.48;;;;;;;;;;4909342;29;20155;-62
2021/05/21 03:52:44;;;;;;;;;;;;;;;;;;4905937;29;20162;-62
2021/05/21 03:55:11;;;;;;;9.80;1.20;;;;;;;;;;4907748;29;19927;-61
2021/05/21 03:57:39;;;;;;;12.20;1.98;;;;;;;;;;4903815;29;20031;-61
2021/05/21 04:00:06;;;;;;;10.65;1.67;;;;;;;;;;4925260;29;20091;-61
2021/05/21 04:02:33;;;;;;;9.75;1.33;;;;;;;;;;4906505;29;20102;-61
2021/05/21 04:04:59;;;;;;;13.88;1.55;;;;;;;;;;4907951;29;20080;-61
2021/05/21 04:07:25;;;;;;;9.32;1.45;;;;;;;;;;4906139;29;20040;-61
2021/05/21 04:09:51;;;;;;;10.40;1.38;;;;;;;;;;4907028;29;20084;-61
2021/05/21 04:12:18;;;;;;;7.68;1.58;;;;;;;;;;4908810;29;20059;-61
2021/05/21 04:14:44;;;;;;;14.10;1.63;;;;;;;;;;4904825;29;20036;-61
2021/05/21 04:17:10;;;;;;;8.82;1.30;;;;;;;;;;4908489;29;20035;-61
2021/05/21 04:19:36;;;;;;;17.92;1.77;;;;;;;;;;4904069;29;20039;-61
2021/05/21 04:22:04;;;;;;;11.27;1.77;;;;;;;;;;4908159;29;20167;-60
2021/05/21 04:24:30;;;;;;;16.80;1.73;;;;;;;;;;4904368;29;20179;-60
2021/05/21 04:26:56;;;;;;;5.20;0.93;;;;;;;;;;4892006;29;20100;-61
2021/05/21 04:29:23;;;;;;;12.60;1.38;;;;;;;;;;4903900;29;20044;-61
2021/05/21 04:31:50;;;;;;;16.98;1.90;;;;;;;;;;4927458;29;20048;-61
2021/05/21 04:34:16;;;;;;;10.50;1.27;;;;;;;;;;4934861;29;20112;-61
2021/05/21 04:36:42;;;;;;;12.02;1.67;;;;;;;;;;4907960;29;20048;-60
2021/05/21 04:39:08;;;;;;;12.15;1.45;;;;;;;;;;4903607;29;20058;-60
2021/05/21 04:41:35;;;;;;;15.13;1.70;;;;;;;;;;4921361;29;20103;-61
2021/05/21 04:44:01;;;;;;;10.52;1.40;;;;;;;;;;4922577;29;20047;-61
2021/05/21 04:46:28;;;;;;;13.02;1.83;;;;;;;;;;4909190;29;20047;-61
2021/05/21 04:48:54;;;;;;;12.10;1.50;;;;;;;;;;4909845;29;20036;-61
2021/05/21 04:51:20;;;;;;;9.68;1.33;;;;;;;;;;4905274;29;20040;-60
2021/05/21 04:53:46;;;;;;;12.77;1.75;;;;;;;;;;4909430;29;20050;-61
2021/05/21 04:56:12;;;;;;;16.10;1.70;;;;;;;;;;4907690;29;20040;-62
2021/05/21 04:58:38;;;;;;;10.32;1.40;;;;;;;;;;4909602;29;20048;-60
2021/05/21 05:01:06;;;;;;;12.38;1.88;;;;;;;;;;4919880;29;20071;-61
2021/05/21 05:03:33;;;;;;;9.30;1.60;;;;;;;;;;4929492;29;20059;-62
2021/05/21 05:05:59;;;;;;;16.90;1.70;;;;;;;;;;4942841;29;20094;-61
2021/05/21 05:08:25;;;;;;;10.63;2.28;;;;;;;;;;4929776;29;20075;-62
2021/05/21 05:10:51;;;;;;;15.10;2.35;;;;;;;;;;4918174;29;20040;-62
2021/05/21 05:13:17;;;;;;;10.23;1.98;;;;;;;;;;4910516;29;20044;-63
2021/05/21 05:15:43;;;;;;;11.40;1.50;;;;;;;;;;4900448;29;20053;-62
2021/05/21 05:18:09;;;;;;;10.73;1.40;;;;;;;;;;4906917;29;20048;-62
2021/05/21 05:20:36;;;;;;;10.80;1.33;;;;;;;;;;4904883;29;20067;-60
2021/05/21 05:23:03;;;;;;;13.75;1.58;;;;;;;;;;4904882;29;20039;-62
2021/05/21 05:25:29;;;;;;;7.70;1.50;;;;;;;;;;4903773;29;20058;-62
2021/05/21 05:27:55;;;;;;;8.95;1.92;;;;;;;;;;4922808;29;20068;-61
2021/05/21 05:30:22;;;;;;;8.00;1.33;;;;;;;;;;4901652;29;20052;-61
2021/05/21 05:32:49;;;;;;;15.73;1.75;;;;;;;;;;4919667;29;20055;-61
2021/05/21 05:35:15;;;;;;;14.15;1.67;;;;;;;;;;4905591;29;20055;-61
2021/05/21 05:37:42;;;;;;;13.40;3.60;;;;;;;;;;4902368;29;20064;-61
2021/05/21 05:40:08;;;;;;;17.88;4.50;;;;;;;;;;4904556;29;20051;-61
2021/05/21 05:42:35;;;;;;;15.73;2.30;;;;;;;;;;4904375;29;20052;-60
2021/05/21 05:45:01;;;;;;;9.90;1.60;;;;;;;;;;4906639;29;20038;-62
2021/05/21 05:47:27;;;;;;;12.18;1.73;;;;;;;;;;4903728;29;20048;-61
2021/05/21 05:49:53;;;;;;;9.45;1.88;;;;;;;;;;4906271;29;20054;-62
2021/05/21 05:52:19;;;;;;;11.85;2.10;;;;;;;;;;4902517;29;20087;-62
2021/05/21 05:54:46;;;;;;;9.63;1.60;;;;;;;;;;4902561;29;20084;-62
2021/05/21 05:57:12;;;;;;;18.48;2.10;;;;;;;;;;4903310;29;20115;-63
2021/05/21 05:59:39;;;;;;;11.05;1.38;;;;;;;;;;4905175;29;20040;-62
2021/05/21 06:02:06;;;;;;;11.75;2.20;;;;;;;;;;4901332;29;20056;-62
2021/05/21 06:04:32;;;;;;;13.02;3.38;;;;;;;;;;4904042;29;20032;-60
2021/05/21 06:06:58;;;;;;;9.13;1.60;;;;;;;;;;4905223;29;20131;-63
2021/05/21 06:09:25;;;;;;;10.02;1.77;;;;;;;;;;4901819;29;20088;-62
2021/05/21 06:11:52;;;;;;;16.17;2.15;;;;;;;;;;4910039;29;20051;-62
2021/05/21 06:14:18;;;;;;;13.52;1.85;;;;;;;;;;4906124;29;20052;-62
2021/05/21 06:16:44;;;;;;;12.60;1.40;;;;;;;;;;4924511;29;20047;-61
2021/05/21 06:19:10;;;;;;;7.65;1.58;;;;;;;;;;4935469;29;20091;-61
2021/05/21 06:21:38;;;;;;;17.98;1.75;;;;;;;;;;4929247;28;20086;-60
2021/05/21 06:24:04;;;;;;;9.13;1.15;;;;;;;;;;4913826;29;20068;-61
2021/05/21 06:26:36;;;;;;;12.57;1.75;;;;;;;;;;4897383;29;20048;-63
2021/05/21 06:29:03;;;;;;;9.23;1.65;;;;;;;;;;4912754;29;20048;-62
2021/05/21 06:31:29;;;;;;;18.45;1.95;;;;;;;;;;4907344;29;20054;-61
2021/05/21 06:33:56;;;;;;;12.02;1.50;;;;;;;;;;4912135;29;20054;-62
2021/05/21 06:36:23;;;;;;;17.65;2.20;;;;;;;;;;4927412;29;20055;-62
2021/05/21 06:38:49;;;;;;;14.82;1.65;;;;;;;;;;4937145;28;20387;-61
2021/05/21 06:41:15;;;;;;;17.35;1.70;;;;;;;;;;4909218;29;20051;-61
2021/05/21 06:43:41;;;;;;;12.32;1.90;;;;;;;;;;4906249;29;20040;-62
2021/05/21 06:46:08;;;;;;;11.93;1.58;;;;;;;;;;4910073;29;20044;-61
2021/05/21 06:48:35;;;;;;;13.93;1.88;;;;;;;;;;4926449;29;20062;-61
2021/05/21 06:51:03;;;;;;;15.15;1.85;;;;;;;;;;4905443;29;20044;-61
2021/05/21 06:53:29;;;;;;;11.98;1.80;;;;;;;;;;4908769;29;20058;-62
2021/05/21 06:55:56;;;;;;;13.20;1.73;;;;;;;;;;4890970;29;20044;-61
2021/05/21 06:58:22;;;;;;;13.65;1.67;;;;;;;;;;4915450;29;20042;-61
2021/05/21 07:00:49;;;;;;;11.95;2.00;;;;;;;;;;4905355;29;20036;-62
2021/05/21 07:03:16;;;;;;;8.55;1.52;;;;;;;;;;4908878;29;20055;-62
2021/05/21 07:05:43;;;;;;;14.75;2.15;;;;;;;;;;4906014;29;20051;-61
2021/05/21 07:08:10;;;;;;;11.95;1.60;;;;;;;;;;4910262;29;20106;-61
2021/05/21 07:10:36;;;;;;;14.82;2.00;;;;;;;;;;4904754;29;20047;-62
2021/05/21 07:13:09;;;;;;;17.27;2.03;;;;;;;;;;4909315;29;20048;-61
2021/05/21 07:15:35;;;;;;;17.40;1.90;;;;;;;;;;4906515;29;20326;-63
2021/05/21 07:18:01;;;;;;;9.93;1.45;;;;;;;;;;4909535;29;20040;-61
2021/05/21 07:20:28;;;;;;;7.93;1.38;;;;;;;;;;4906409;29;20048;-62
2021/05/21 07:22:55;;;;;;;11.32;1.60;;;;;;;;;;4898607;29;20072;-61
2021/05/21 07:25:21;;;;;;;14.10;1.73;;;;;;;;;;4888615;29;20071;-61
2021/05/21 07:27:47;;;;;;;10.25;1.45;;;;;;;;;;4895026;29;20040;-61
2021/05/21 07:30:14;;;;;;;10.75;1.67;;;;;;;;;;4909172;29;20040;-62
2021/05/21 07:32:41;;;;;;;8.68;1.95;;;;;;;;;;4899549;29;20127;-62
2021/05/21 07:35:07;;;;;;;18.80;2.25;;;;;;;;;;4888913;29;20040;-61
2021/05/21 07:37:34;;;;;;;11.63;1.65;;;;;;;;;;4902412;29;20055;-61
2021/05/21 07:40:00;;;;;;;30.02;1.90;;;;;;;;;;4896042;29;20044;-61
2021/05/21 07:42:27;;;;;;;13.90;1.63;;;;;;;;;;4894958;29;20052;-61
2021/05/21 07:44:53;;;;;;;12.10;1.52;;;;;;;;;;4903765;29;20153;-61
2021/05/21 07:47:20;;;;;;;8.02;1.48;;;;;;;;;;4904768;29;20035;-62
2021/05/21 07:49:46;;;;;;;12.77;1.60;;;;;;;;;;4910108;29;20051;-61
2021/05/21 07:52:12;;;;;;;11.02;1.40;;;;;;;;;;4907404;29;20068;-61
2021/05/21 07:54:39;;;;;;;13.10;1.70;;;;;;;;;;4908347;29;20057;-61
2021/05/21 07:57:05;;;;;;;7.78;1.40;;;;;;;;;;4905559;29;20044;-63
2021/05/21 07:59:32;;;;;;;8.55;1.42;;;;;;;;;;4908013;29;20028;-61
2021/05/21 08:01:59;;;;;;;5.60;1.10;;;;;;;;;;4907225;29;20058;-63
2021/05/21 08:04:25;;;;;;;3.78;0.90;;;;;;;;;;4927258;29;20046;-61
2021/05/21 08:06:51;;;;;;;4.95;1.27;;;;;;;;;;4922758;29;20062;-62
2021/05/21 08:09:17;;;;;;;7.20;1.38;;;;;;;;;;4925705;29;20125;-61
2021/05/21 08:11:45;;;;;;;5.35;1.00;;;;;;;;;;4927418;29;20048;-61
2021/05/21 08:14:11;;;;;;;6.03;1.35;;;;;;;;;;4939457;29;20047;-62
2021/05/21 08:16:38;;;;;;;7.32;1.17;;;;;;;;;;4925714;29;20048;-62
2021/05/21 08:19:05;;;;;;;6.65;1.27;;;;;;;;;;4921425;29;20040;-62
2021/05/21 08:21:31;;;;;;;8.25;1.45;;;;;;;;;;4926868;29;20051;-62
2021/05/21 08:23:58;;;;;;;7.15;1.30;;;;;;;;;;4909480;29;20055;-61
2021/05/21 08:26:25;;;;;;;8.82;1.50;;;;;;;;;;4897959;29;20045;-62
2021/05/21 08:28:52;;;;;;;12.87;1.53;;;;;;;;;;4904698;29;20047;-62
2021/05/21 08:31:19;;;;;;;6.13;1.45;;;;;;;;;;4929113;29;20036;-63
2021/05/21 08:33:45;;;;;;;7.60;1.42;;;;;;;;;;4924900;29;20042;-64
2021/05/21 08:36:11;;;;;;;8.70;1.40;;;;;;;;;;4929436;29;20040;-63
2021/05/21 08:38:38;;;;;;;8.85;1.42;;;;;;;;;;4912725;29;20064;-62
2021/05/21 08:41:04;;;;;;;8.48;1.27;;;;;;;;;;4910936;29;20044;-63
2021/05/21 08:43:31;;;;;;;8.52;1.27;;;;;;;;;;4906947;29;20048;-61
2021/05/21 08:45:58;;;;;;;7.82;1.50;;;;;;;;;;4929838;29;20044;-62
2021/05/21 08:48:24;;;;;;;12.45;2.00;;;;;;;;;;4929069;29;20079;-64
2021/05/21 08:50:50;;;;;;;13.35;2.30;;;;;;;;;;4906213;29;20058;-63
2021/05/21 08:53:17;;;;;;;10.95;1.85;;;;;;;;;;4910617;29;20052;-62
2021/05/21 08:55:43;;;;;;;10.98;1.60;;;;;;;;;;4922799;29;20051;-63
2021/05/21 08:58:12;;;;;;;7.45;1.40;;;;;;;;;;4930143;29;20122;-63
2021/05/21 09:00:40;;;;;;;13.13;1.52;;;;;;;;;;4912760;29;20126;-63
2021/05/21 09:03:18;;;;;;;7.50;1.25;;;;;;;;;;4909275;29;20044;-62
2021/05/21 09:05:59;;;;;;;6.63;1.60;;;;;;;;;;4897007;29;20052;-63
2021/05/21 09:08:32;;;;;;;9.65;1.80;;;;;;;;;;4943252;28;20035;-63
2021/05/21 09:10:59;;;;;;;7.53;1.40;;;;;;;;;;4924497;28;20051;-64
2021/05/21 09:13:32;;;;;;;8.48;1.25;;;;;;;;;;4929661;29;20062;-62
2021/05/21 09:16:00;;;;;;;11.50;1.65;;;;;;;;;;4912931;29;20056;-64
2021/05/21 09:18:27;;;;;;;9.38;0.85;;;;;;;;;;4909410;29;20036;-61
2021/05/21 09:20:53;;;;;;;4.60;1.10;;;;;;;;;;4933293;29;20057;-63
2021/05/21 09:23:20;;;;;;;4.15;1.00;;;;;;;;;;4930560;29;20044;-63
2021/05/21 09:25:47;;;;;;;9.85;1.33;;;;;;;;;;4914159;29;20063;-63
2021/05/21 09:28:32;;;;;;;12.65;1.60;;;;;;;;;;4909831;29;20029;-64
2021/05/21 09:31:10;;;;;;;9.63;1.13;;;;;;;;;;4901748;29;20153;-62
2021/05/21 09:33:37;;;;;;;8.75;1.23;;;;;;;;;;4928640;29;20099;-62
2021/05/21 09:36:04;;;;;;;9.82;1.20;;;;;;;;;;4892420;29;20056;-63
2021/05/21 09:38:31;;;;;;;10.07;2.05;;;;;;;;;;4903636;29;20055;-62
2021/05/21 09:41:05;;;;;;;7.97;1.85;;;;;;;;;;4914717;29;20048;-63
2021/05/21 09:43:31;;;;;;;9.73;1.55;;;;;;;;;;4927123;29;20120;-62
2021/05/21 09:46:07;;;;;;;14.57;1.67;;;;;;;;;;4915518;29;20048;-62
2021/05/21 09:48:34;;;;;;;8.77;1.70;;;;;;;;;;4926516;29;20126;-62
2021/05/21 09:51:01;;;;;;;12.88;2.00;;;;;;;;;;4906961;29;20050;-63
2021/05/21 09:53:27;;;;;;;10.05;1.52;;;;;;;;;;4908866;29;20130;-62
2021/05/21 09:55:54;;;;;;;14.70;1.95;;;;;;;;;;4909945;29;20134;-63
2021/05/21 09:58:25;;;;;;;10.32;1.83;;;;;;;;;;4907411;29;20043;-62
2021/05/21 10:01:07;;;;;;;12.98;2.00;;;;;;;;;;4911566;29;20062;-63
2021/05/21 10:03:40;;;;;;;9.68;1.60;;;;;;;;;;4914848;29;20182;-63
2021/05/21 10:06:07;;;;;;;10.80;1.90;;;;;;;;;;4928202;29;20066;-62
2021/05/21 10:08:33;;;;;;;14.40;2.00;;;;;;;;;;4923609;29;20055;-63
2021/05/21 10:11:00;;;;;;;14.82;2.10;;;;;;;;;;4929950;29;20064;-63
2021/05/21 10:13:26;;;;;;;11.07;1.77;;;;;;;;;;4925187;29;20036;-63
2021/05/21 10:15:52;;;;;;;9.52;1.75;;;;;;;;;;4928460;29;20051;-62
2021/05/21 10:18:18;;;;;;;9.60;1.65;;;;;;;;;;4934235;28;20051;-61
2021/05/21 10:20:45;;;;;;;9.02;1.35;;;;;;;;;;4946864;28;20054;-61
2021/05/21 10:23:16;;;;;;;12.10;1.50;;;;;;;;;;4944001;28;20102;-61
2021/05/21 10:25:42;;;;;;;9.10;1.67;;;;;;;;;;4941938;28;20055;-61
2021/05/21 10:28:09;;;;;;;7.15;1.65;;;;;;;;;;4927142;28;20091;-62
2021/05/21 10:30:36;;;;;;;15.27;2.38;;;;;;;;;;4945993;28;20094;-62
2021/05/21 10:33:15;;;;;;;10.48;2.20;;;;;;;;;;4958251;28;20051;-61
2021/05/21 10:35:41;;;;;;;10.98;1.73;;;;;;;;;;4926974;29;20051;-61
2021/05/21 10:38:22;;;;;;;14.60;1.70;;;;;;;;;;4923529;28;20062;-62
2021/05/21 10:41:07;;;;;;;8.75;1.52;;;;;;;;;;4951832;28;20047;-61
2021/05/21 10:43:46;;;;;;;13.02;1.77;;;;;;;;;;4957958;28;20040;-61
2021/05/21 10:46:14;;;;;;;6.50;1.30;;;;;;;;;;4928371;29;20055;-62
2021/05/21 10:48:49;;;;;;;7.07;1.65;;;;;;;;;;4925007;28;20038;-61
2021/05/21 10:51:16;;;;;;;8.98;1.52;;;;;;;;;;4927980;29;20054;-61
2021/05/21 10:53:43;;;;;;;8.52;1.50;;;;;;;;;;4925756;28;20043;-62
2021/05/21 10:56:09;;;;;;;14.93;1.33;;;;;;;;;;4947181;28;20053;-60
2021/05/21 10:58:43;;;;;;;7.72;1.27;;;;;;;;;;4947651;28;20035;-60
2021/05/21 11:01:19;;;;;;;13.23;1.75;;;;;;;;;;4928571;29;20051;-61
2021/05/21 11:04:19;;;;;;;11.02;1.50;;;;;;;;;;4921242;29;20063;-61
2021/05/21 11:06:53;;;;;;;13.32;1.40;;;;;;;;;;4889394;29;20064;-61
2021/05/21 11:09:20;;;;;;;10.43;1.20;;;;;;;;;;4887504;29;20104;-61
2021/05/21 11:11:54;;;;;;;8.45;1.42;;;;;;;;;;4907432;29;20048;-62
2021/05/21 11:14:31;;;;;;;8.10;1.52;;;;;;;;;;4905077;29;20052;-62
2021/05/21 11:16:58;;;;;;;14.27;2.10;;;;;;;;;;4905885;29;20041;-61
2021/05/21 11:19:25;;;;;;;6.20;1.65;;;;;;;;;;4890163;29;20060;-61
2021/05/21 11:21:52;;;;;;;10.60;2.10;;;;;;;;;;4905885;29;20036;-62
2021/05/21 11:24:34;;;;;;;10.32;1.48;;;;;;;;;;4908967;29;20130;-62
2021/05/21 11:27:01;;;;;;;11.40;1.60;;;;;;;;;;4889573;29;20044;-61
2021/05/21 11:29:27;;;;;;;11.32;1.35;;;;;;;;;;4889580;29;20040;-60
2021/05/21 11:31:54;;;;;;;20.23;2.70;;;;;;;;;;4902409;29;20092;-63
2021/05/21 11:34:20;;;;;;;10.75;1.75;;;;;;;;;;4907903;29;20126;-63
2021/05/21 11:36:46;;;;;;;8.73;1.50;;;;;;;;;;4918202;29;20055;-64
2021/05/21 11:39:12;;;;;;;8.93;1.30;;;;;;;;;;4927048;29;20140;-62
2021/05/21 11:41:43;;;;;;;6.57;1.17;;;;;;;;;;4910423;29;20040;-62
2021/05/21 11:44:10;;;;;;;10.65;1.23;;;;;;;;;;4908706;29;20058;-62
2021/05/21 11:46:36;;;;;;;11.18;1.42;;;;;;;;;;4904061;29;20032;-63
2021/05/21 11:49:06;;;;;;;9.50;1.40;;;;;;;;;;4925529;29;20052;-62
2021/05/21 11:51:33;;;;;;;8.13;1.38;;;;;;;;;;4904785;29;20039;-62
2021/05/21 11:54:02;;;;;;;7.32;1.13;;;;;;;;;;4908638;29;20036;-63
2021/05/21 11:56:29;;;;;;;9.63;1.48;;;;;;;;;;4905506;29;20047;-63
2021/05/21 11:58:59;;;;;;;9.27;1.40;;;;;;;;;;4908153;29;20088;-63
2021/05/21 12:01:28;;;;;;;9.63;1.40;;;;;;;;;;4921664;29;20066;-62
2021/05/21 12:03:54;;;;;;;8.23;1.55;;;;;;;;;;4911803;29;20058;-62
2021/05/21 12:06:21;;;;;;;12.38;1.65;;;;;;;;;;4899871;29;20032;-63
2021/05/21 12:08:48;;;;;;;13.32;1.90;;;;;;;;;;4925600;29;20055;-62
2021/05/21 12:11:16;;;;;;;14.82;1.65;;;;;;;;;;4923527;29;20023;-62
2021/05/21 12:13:42;;;;;;;7.05;1.38;;;;;;;;;;4935277;29;20054;-62
2021/05/21 12:16:12;;;;;;;11.02;1.67;;;;;;;;;;4927229;29;20067;-62
2021/05/21 12:18:38;;;;;;;13.55;1.63;;;;;;;;;;4925582;29;20040;-62
2021/05/21 12:21:05;;;;;;;10.70;1.52;;;;;;;;;;4916896;29;20060;-62
2021/05/21 12:23:35;;;;;;;7.25;1.23;;;;;;;;;;4915758;29;20043;-62
2021/05/21 12:26:02;;;;;;;7.80;1.60;;;;;;;;;;4911767;29;20032;-61
2021/05/21 12:28:28;;;;;;;7.22;1.42;;;;;;;;;;4923976;29;20043;-63
2021/05/21 12:31:01;;;;;;;8.32;1.38;;;;;;;;;;4945183;29;20044;-64
2021/05/21 12:33:28;;;;;;;15.05;1.95;;;;;;;;;;4915765;29;20091;-62
2021/05/21 12:35:54;;;;;;;12.10;1.50;;;;;;;;;;4909208;29;20047;-63
2021/05/21 12:38:23;;;;;;;7.65;1.30;;;;;;;;;;4920270;29;20063;-63
2021/05/21 12:40:51;;;;;;;11.02;1.20;;;;;;;;;;4930656;29;20071;-63
2021/05/21 12:43:17;;;;;;;7.38;1.58;;;;;;;;;;4935259;29;20036;-62
2021/05/21 12:45:53;;;;;;;8.75;1.40;;;;;;;;;;4921292;29;20157;-63
2021/05/21 12:48:19;;;;;;;9.95;1.88;;;;;;;;;;4908220;29;20129;-63
2021/05/21 12:50:46;;;;;;;11.20;2.13;;;;;;;;;;4928097;29;20043;-62
2021/05/21 12:53:13;;;;;;;11.85;1.75;;;;;;;;;;4922259;29;20027;-63
2021/05/21 12:55:44;;;;;;;15.60;1.67;;;;;;;;;;4889089;29;20024;-62
2021/05/21 12:58:15;;;;;;;13.45;1.58;;;;;;;;;;4886256;29;20049;-62
2021/05/21 13:00:41;;;;;;;10.50;1.52;;;;;;;;;;4919749;29;20039;-63
2021/05/21 13:03:08;;;;;;;9.02;1.38;;;;;;;;;;4925446;28;20044;-62
2021/05/21 13:05:34;;;;;;;13.50;1.55;;;;;;;;;;4921107;29;20031;-63
2021/05/21 13:08:04;;;;;;;10.15;1.63;;;;;;;;;;4924330;29;20120;-62
2021/05/21 13:10:36;;;;;;;18.58;1.92;;;;;;;;;;4920605;29;20067;-63
2021/05/21 13:13:02;;;;;;;12.35;2.00;;;;;;;;;;4926393;29;20035;-63
2021/05/21 13:15:30;;;;;;;9.88;1.67;;;;;;;;;;4922683;29;20039;-62
2021/05/21 13:17:57;;;;;;;7.18;1.45;;;;;;;;;;4929280;29;20055;-63
2021/05/21 13:20:24;;;;;;;8.05;1.40;;;;;;;;;;4916824;29;20036;-63
2021/05/21 13:22:51;;;;;;;14.60;2.50;;;;;;;;;;4909577;29;20118;-63
2021/05/21 13:25:18;;;;;;;8.05;1.45;;;;;;;;;;4911621;29;20050;-63
2021/05/21 13:27:48;;;;;;;11.50;1.50;;;;;;;;;;4910393;29;20044;-62
2021/05/21 13:30:18;;;;;;;12.45;1.60;;;;;;;;;;4908640;29;20048;-62
2021/05/21 13:32:45;;;;;;;8.43;1.70;;;;;;;;;;4895171;29;20044;-62
2021/05/21 13:35:12;;;;;;;16.83;1.52;;;;;;;;;;4906166;29;20155;-63
2021/05/21 13:37:38;;;;;;;10.00;1.67;;;;;;;;;;4909576;29;20057;-62
2021/05/21 13:40:06;;;;;;;9.60;1.50;;;;;;;;;;4907204;29;20044;-62
2021/05/21 13:42:35;;;;;;;9.35;1.77;;;;;;;;;;4891922;29;20036;-64
2021/05/21 13:45:01;;;;;;;12.57;1.80;;;;;;;;;;4892636;29;20036;-63
2021/05/21 13:47:27;;;;;;;9.00;1.98;;;;;;;;;;4920184;29;20043;-61
2021/05/21 13:49:59;;;;;;;12.98;2.13;;;;;;;;;;4929009;29;20039;-63
2021/05/21 13:52:26;;;;;;;10.43;1.63;;;;;;;;;;4908399;29;20039;-63
2021/05/21 13:54:52;;;;;;;9.00;1.70;;;;;;;;;;4910575;29;20044;-62
2021/05/21 13:57:18;;;;;;;14.20;2.05;;;;;;;;;;4906026;29;20076;-61
2021/05/21 13:59:44;;;;;;;7.85;1.40;;;;;;;;;;4909201;29;20044;-62
2021/05/21 14:02:11;;;;;;;8.30;1.30;;;;;;;;;;4917304;29;20035;-63
2021/05/21 14:04:39;;;;;;;8.48;1.42;;;;;;;;;;4929116;29;20039;-61
2021/05/21 14:07:06;;;;;;;7.07;1.23;;;;;;;;;;4918658;29;20046;-62
2021/05/21 14:09:32;;;;;;;13.52;1.98;;;;;;;;;;4911930;29;20048;-62
2021/05/21 14:11:59;;;;;;;12.07;1.52;;;;;;;;;;4906309;29;20146;-61
2021/05/21 14:14:25;;;;;;;5.57;1.30;;;;;;;;;;4910548;29;20024;-62
2021/05/21 14:16:54;;;;;;;7.47;1.15;;;;;;;;;;4909726;29;20056;-61
2021/05/21 14:19:20;;;;;;;9.38;1.38;;;;;;;;;;4928643;29;20046;-62
2021/05/21 14:21:47;;;;;;;4.95;1.05;;;;;;;;;;4925355;29;20043;-62
2021/05/21 14:24:14;;;;;;;6.47;1.50;;;;;;;;;;4919142;29;20035;-62
2021/05/21 14:26:41;;;;;;;6.63;1.20;;;;;;;;;;4915549;29;20036;-62
2021/05/21 14:29:09;;;;;;;8.52;1.27;;;;;;;;;;4923429;29;20066;-62
2021/05/21 14:31:39;;;;;;;8.60;1.35;;;;;;;;;;4928619;29;20031;-62
2021/05/21 14:34:07;;;;;;;12.15;1.55;;;;;;;;;;4924027;29;20053;-62
2021/05/21 14:36:34;;;;;;;5.93;1.50;;;;;;;;;;4927092;29;20054;-62